sensor_id;sensor_type;location;lat;lon;timestamp;P1;durP1;ratioP1;P2;durP2;ratioP2
12593;SDS011;6362;50.208;9.182;2023-04-24T00:00:12;1.75;;;1.02;;
12593;SDS011;6362;50.208;9.182;2023-04-24T00:02:39;2.20;;;1.20;;
12593;SDS011;6362;50.208;9.182;2023-04-24T00:05:05;1.98;;;1.08;;
12593;SDS011;6362;50.208;9.182;2023-04-24T00:07:31;1.45;;;0.80;;
12593;SDS011;6362;50.208;9.182;2023-04-24T00:09:56;2.35;;;1.73;;
12593;SDS011;6362;50.208;9.182;2023-04-24T00:12:22;1.38;;;0.55;;
12593;SDS011;6362;50.208;9.182;2023-04-24T00:14:48;1.40;;;0.95;;
12593;SDS011;6362;50.208;9.182;2023-04-24T00:17:13;3.25;;;1.08;;
12593;SDS011;6362;50.208;9.182;2023-04-24T00:19:39;1.73;;;1.00;;
12593;SDS011;6362;50.208;9.182;2023-04-24T00:22:04;1.42;;;0.73;;
12593;SDS011;6362;50.208;9.182;2023-04-24T00:24:30;1.30;;;0.60;;
12593;SDS011;6362;50.208;9.182;2023-04-24T00:26:56;3.92;;;0.98;;
12593;SDS011;6362;50.208;9.182;2023-04-24T00:29:21;1.10;;;0.70;;
12593;SDS011;6362;50.208;9.182;2023-04-24T00:31:47;1.75;;;0.50;;
12593;SDS011;6362;50.208;9.182;2023-04-24T00:34:12;2.45;;;0.98;;
12593;SDS011;6362;50.208;9.182;2023-04-24T00:36:38;0.80;;;0.60;;
12593;SDS011;6362;50.208;9.182;2023-04-24T00:39:04;1.85;;;0.85;;
12593;SDS011;6362;50.208;9.182;2023-04-24T00:41:29;2.67;;;1.00;;
12593;SDS011;6362;50.208;9.182;2023-04-24T00:43:55;2.97;;;0.80;;
12593;SDS011;6362;50.208;9.182;2023-04-24T00:46:21;1.17;;;1.00;;
12593;SDS011;6362;50.208;9.182;2023-04-24T00:48:46;0.98;;;0.65;;
12593;SDS011;6362;50.208;9.182;2023-04-24T00:51:12;1.60;;;0.88;;
12593;SDS011;6362;50.208;9.182;2023-04-24T00:53:38;1.50;;;1.00;;
12593;SDS011;6362;50.208;9.182;2023-04-24T00:56:04;1.70;;;0.88;;
12593;SDS011;6362;50.208;9.182;2023-04-24T00:58:30;3.70;;;1.20;;
12593;SDS011;6362;50.208;9.182;2023-04-24T01:00:56;1.40;;;0.80;;
12593;SDS011;6362;50.208;9.182;2023-04-24T01:03:24;1.45;;;1.05;;
12593;SDS011;6362;50.208;9.182;2023-04-24T01:05:54;1.98;;;0.82;;
12593;SDS011;6362;50.208;9.182;2023-04-24T01:08:20;3.47;;;0.80;;
12593;SDS011;6362;50.208;9.182;2023-04-24T01:10:48;1.17;;;0.90;;
12593;SDS011;6362;50.208;9.182;2023-04-24T01:13:15;3.50;;;1.00;;
12593;SDS011;6362;50.208;9.182;2023-04-24T01:15:40;1.35;;;1.17;;
12593;SDS011;6362;50.208;9.182;2023-04-24T01:18:06;1.77;;;0.90;;
12593;SDS011;6362;50.208;9.182;2023-04-24T01:20:31;2.80;;;1.00;;
12593;SDS011;6362;50.208;9.182;2023-04-24T01:22:58;1.63;;;0.90;;
12593;SDS011;6362;50.208;9.182;2023-04-24T01:25:25;1.63;;;0.80;;
12593;SDS011;6362;50.208;9.182;2023-04-24T01:27:51;1.67;;;1.00;;
12593;SDS011;6362;50.208;9.182;2023-04-24T01:30:17;1.10;;;0.75;;
12593;SDS011;6362;50.208;9.182;2023-04-24T01:32:43;1.40;;;1.05;;
12593;SDS011;6362;50.208;9.182;2023-04-24T01:35:09;1.40;;;0.93;;
12593;SDS011;6362;50.208;9.182;2023-04-24T01:37:36;1.60;;;0.90;;
12593;SDS011;6362;50.208;9.182;2023-04-24T01:40:05;3.72;;;0.90;;
12593;SDS011;6362;50.208;9.182;2023-04-24T01:42:31;2.75;;;0.80;;
12593;SDS011;6362;50.208;9.182;2023-04-24T01:44:57;1.70;;;0.80;;
12593;SDS011;6362;50.208;9.182;2023-04-24T01:47:23;1.40;;;1.08;;
12593;SDS011;6362;50.208;9.182;2023-04-24T01:49:49;2.15;;;0.93;;
12593;SDS011;6362;50.208;9.182;2023-04-24T01:52:16;2.30;;;1.10;;
12593;SDS011;6362;50.208;9.182;2023-04-24T01:54:43;1.48;;;0.98;;
12593;SDS011;6362;50.208;9.182;2023-04-24T01:57:09;1.02;;;0.77;;
12593;SDS011;6362;50.208;9.182;2023-04-24T01:59:35;1.05;;;0.82;;
12593;SDS011;6362;50.208;9.182;2023-04-24T02:02:01;1.75;;;0.68;;
12593;SDS011;6362;50.208;9.182;2023-04-24T02:04:27;4.20;;;0.70;;
12593;SDS011;6362;50.208;9.182;2023-04-24T02:06:53;2.45;;;0.80;;
12593;SDS011;6362;50.208;9.182;2023-04-24T02:09:18;1.23;;;0.85;;
12593;SDS011;6362;50.208;9.182;2023-04-24T02:11:44;2.10;;;0.77;;
12593;SDS011;6362;50.208;9.182;2023-04-24T02:14:09;1.63;;;0.88;;
12593;SDS011;6362;50.208;9.182;2023-04-24T02:16:35;2.33;;;0.90;;
12593;SDS011;6362;50.208;9.182;2023-04-24T02:19:01;2.80;;;0.90;;
12593;SDS011;6362;50.208;9.182;2023-04-24T02:21:27;1.87;;;0.97;;
12593;SDS011;6362;50.208;9.182;2023-04-24T02:23:53;3.30;;;0.80;;
12593;SDS011;6362;50.208;9.182;2023-04-24T02:26:18;1.23;;;0.80;;
12593;SDS011;6362;50.208;9.182;2023-04-24T02:28:44;1.20;;;0.95;;
12593;SDS011;6362;50.208;9.182;2023-04-24T02:31:09;1.85;;;0.70;;
12593;SDS011;6362;50.208;9.182;2023-04-24T02:33:35;1.63;;;0.80;;
12593;SDS011;6362;50.208;9.182;2023-04-24T02:36:02;3.10;;;1.20;;
12593;SDS011;6362;50.208;9.182;2023-04-24T02:38:28;0.93;;;0.70;;
12593;SDS011;6362;50.208;9.182;2023-04-24T02:40:54;0.70;;;0.70;;
12593;SDS011;6362;50.208;9.182;2023-04-24T02:43:19;1.05;;;0.70;;
12593;SDS011;6362;50.208;9.182;2023-04-24T02:45:45;1.65;;;0.85;;
12593;SDS011;6362;50.208;9.182;2023-04-24T02:48:11;5.45;;;0.90;;
12593;SDS011;6362;50.208;9.182;2023-04-24T02:50:36;1.38;;;0.70;;
12593;SDS011;6362;50.208;9.182;2023-04-24T02:53:01;4.07;;;1.23;;
12593;SDS011;6362;50.208;9.182;2023-04-24T02:55:27;2.20;;;0.70;;
12593;SDS011;6362;50.208;9.182;2023-04-24T02:57:53;1.00;;;0.60;;
12593;SDS011;6362;50.208;9.182;2023-04-24T03:00:18;0.88;;;0.70;;
12593;SDS011;6362;50.208;9.182;2023-04-24T03:02:44;1.48;;;0.80;;
12593;SDS011;6362;50.208;9.182;2023-04-24T03:05:09;0.80;;;0.60;;
12593;SDS011;6362;50.208;9.182;2023-04-24T03:07:36;1.58;;;0.85;;
12593;SDS011;6362;50.208;9.182;2023-04-24T03:10:02;0.70;;;0.50;;
12593;SDS011;6362;50.208;9.182;2023-04-24T03:12:28;0.65;;;0.60;;
12593;SDS011;6362;50.208;9.182;2023-04-24T03:14:53;3.28;;;0.50;;
12593;SDS011;6362;50.208;9.182;2023-04-24T03:17:19;1.75;;;0.82;;
12593;SDS011;6362;50.208;9.182;2023-04-24T03:19:44;1.77;;;1.02;;
12593;SDS011;6362;50.208;9.182;2023-04-24T03:22:10;1.38;;;0.77;;
12593;SDS011;6362;50.208;9.182;2023-04-24T03:24:36;2.05;;;0.60;;
12593;SDS011;6362;50.208;9.182;2023-04-24T03:27:01;2.28;;;1.02;;
12593;SDS011;6362;50.208;9.182;2023-04-24T03:29:27;1.90;;;0.60;;
12593;SDS011;6362;50.208;9.182;2023-04-24T03:31:52;2.00;;;0.75;;
12593;SDS011;6362;50.208;9.182;2023-04-24T03:34:17;1.52;;;0.70;;
12593;SDS011;6362;50.208;9.182;2023-04-24T03:36:43;1.20;;;0.52;;
12593;SDS011;6362;50.208;9.182;2023-04-24T03:39:08;2.58;;;0.70;;
12593;SDS011;6362;50.208;9.182;2023-04-24T03:41:34;1.55;;;0.75;;
12593;SDS011;6362;50.208;9.182;2023-04-24T03:43:59;2.75;;;1.15;;
12593;SDS011;6362;50.208;9.182;2023-04-24T03:46:25;2.08;;;0.90;;
12593;SDS011;6362;50.208;9.182;2023-04-24T03:48:50;1.60;;;0.73;;
12593;SDS011;6362;50.208;9.182;2023-04-24T03:51:16;1.52;;;0.70;;
12593;SDS011;6362;50.208;9.182;2023-04-24T03:53:41;1.58;;;0.70;;
12593;SDS011;6362;50.208;9.182;2023-04-24T03:56:07;1.27;;;0.90;;
12593;SDS011;6362;50.208;9.182;2023-04-24T03:58:32;1.75;;;0.90;;
12593;SDS011;6362;50.208;9.182;2023-04-24T04:00:58;0.95;;;0.70;;
12593;SDS011;6362;50.208;9.182;2023-04-24T04:03:23;3.08;;;0.80;;
12593;SDS011;6362;50.208;9.182;2023-04-24T04:05:50;1.15;;;0.80;;
12593;SDS011;6362;50.208;9.182;2023-04-24T04:08:15;1.05;;;0.68;;
12593;SDS011;6362;50.208;9.182;2023-04-24T04:10:41;1.42;;;0.45;;
12593;SDS011;6362;50.208;9.182;2023-04-24T04:13:06;1.20;;;0.80;;
12593;SDS011;6362;50.208;9.182;2023-04-24T04:15:32;2.97;;;0.95;;
12593;SDS011;6362;50.208;9.182;2023-04-24T04:17:57;1.65;;;1.30;;
12593;SDS011;6362;50.208;9.182;2023-04-24T04:20:22;2.67;;;0.75;;
12593;SDS011;6362;50.208;9.182;2023-04-24T04:22:48;1.55;;;0.60;;
12593;SDS011;6362;50.208;9.182;2023-04-24T04:25:13;1.58;;;1.00;;
12593;SDS011;6362;50.208;9.182;2023-04-24T04:27:39;1.17;;;0.90;;
12593;SDS011;6362;50.208;9.182;2023-04-24T04:30:06;1.17;;;0.70;;
12593;SDS011;6362;50.208;9.182;2023-04-24T04:32:33;1.65;;;0.70;;
12593;SDS011;6362;50.208;9.182;2023-04-24T04:35:00;3.28;;;1.27;;
12593;SDS011;6362;50.208;9.182;2023-04-24T04:37:32;4.72;;;1.38;;
12593;SDS011;6362;50.208;9.182;2023-04-24T04:40:01;2.75;;;1.02;;
12593;SDS011;6362;50.208;9.182;2023-04-24T04:42:31;2.38;;;0.85;;
12593;SDS011;6362;50.208;9.182;2023-04-24T04:44:58;4.05;;;1.08;;
12593;SDS011;6362;50.208;9.182;2023-04-24T04:47:24;1.27;;;0.60;;
12593;SDS011;6362;50.208;9.182;2023-04-24T04:49:51;0.70;;;0.70;;
12593;SDS011;6362;50.208;9.182;2023-04-24T04:52:17;1.70;;;0.98;;
12593;SDS011;6362;50.208;9.182;2023-04-24T04:54:43;0.73;;;0.70;;
12593;SDS011;6362;50.208;9.182;2023-04-24T04:57:08;3.05;;;1.10;;
12593;SDS011;6362;50.208;9.182;2023-04-24T04:59:35;2.00;;;1.35;;
12593;SDS011;6362;50.208;9.182;2023-04-24T05:02:00;3.35;;;1.17;;
12593;SDS011;6362;50.208;9.182;2023-04-24T05:04:26;3.40;;;1.50;;
12593;SDS011;6362;50.208;9.182;2023-04-24T05:06:51;1.00;;;1.00;;
12593;SDS011;6362;50.208;9.182;2023-04-24T05:09:17;1.70;;;1.15;;
12593;SDS011;6362;50.208;9.182;2023-04-24T05:11:43;2.00;;;1.20;;
12593;SDS011;6362;50.208;9.182;2023-04-24T05:14:08;1.83;;;0.82;;
12593;SDS011;6362;50.208;9.182;2023-04-24T05:16:34;2.00;;;1.42;;
12593;SDS011;6362;50.208;9.182;2023-04-24T05:19:00;2.13;;;0.93;;
12593;SDS011;6362;50.208;9.182;2023-04-24T05:21:25;3.92;;;1.30;;
12593;SDS011;6362;50.208;9.182;2023-04-24T05:23:51;1.48;;;0.90;;
12593;SDS011;6362;50.208;9.182;2023-04-24T05:26:17;1.58;;;0.93;;
12593;SDS011;6362;50.208;9.182;2023-04-24T05:28:42;2.15;;;1.08;;
12593;SDS011;6362;50.208;9.182;2023-04-24T05:31:08;2.00;;;1.17;;
12593;SDS011;6362;50.208;9.182;2023-04-24T05:33:33;3.40;;;1.30;;
12593;SDS011;6362;50.208;9.182;2023-04-24T05:35:59;1.17;;;1.00;;
12593;SDS011;6362;50.208;9.182;2023-04-24T05:38:24;2.88;;;1.20;;
12593;SDS011;6362;50.208;9.182;2023-04-24T05:40:50;1.70;;;1.23;;
12593;SDS011;6362;50.208;9.182;2023-04-24T05:43:15;2.42;;;1.23;;
12593;SDS011;6362;50.208;9.182;2023-04-24T05:45:41;2.13;;;1.30;;
12593;SDS011;6362;50.208;9.182;2023-04-24T05:48:06;1.92;;;1.10;;
12593;SDS011;6362;50.208;9.182;2023-04-24T05:50:32;3.95;;;1.30;;
12593;SDS011;6362;50.208;9.182;2023-04-24T05:52:57;2.20;;;1.10;;
12593;SDS011;6362;50.208;9.182;2023-04-24T05:55:27;2.72;;;1.50;;
12593;SDS011;6362;50.208;9.182;2023-04-24T05:57:52;4.25;;;1.83;;
12593;SDS011;6362;50.208;9.182;2023-04-24T06:00:18;1.33;;;1.10;;
12593;SDS011;6362;50.208;9.182;2023-04-24T06:02:45;2.33;;;1.50;;
12593;SDS011;6362;50.208;9.182;2023-04-24T06:05:11;2.20;;;1.90;;
12593;SDS011;6362;50.208;9.182;2023-04-24T06:07:36;2.40;;;1.08;;
12593;SDS011;6362;50.208;9.182;2023-04-24T06:10:02;1.55;;;1.02;;
12593;SDS011;6362;50.208;9.182;2023-04-24T06:12:28;2.97;;;1.30;;
12593;SDS011;6362;50.208;9.182;2023-04-24T06:14:53;1.98;;;1.30;;
12593;SDS011;6362;50.208;9.182;2023-04-24T06:17:20;1.65;;;1.13;;
12593;SDS011;6362;50.208;9.182;2023-04-24T06:19:46;1.20;;;1.10;;
12593;SDS011;6362;50.208;9.182;2023-04-24T06:22:12;3.50;;;1.00;;
12593;SDS011;6362;50.208;9.182;2023-04-24T06:24:37;1.20;;;1.10;;
12593;SDS011;6362;50.208;9.182;2023-04-24T06:27:02;2.65;;;1.40;;
12593;SDS011;6362;50.208;9.182;2023-04-24T06:29:28;3.50;;;1.42;;
12593;SDS011;6362;50.208;9.182;2023-04-24T06:31:53;1.17;;;1.05;;
12593;SDS011;6362;50.208;9.182;2023-04-24T06:34:19;1.30;;;1.20;;
12593;SDS011;6362;50.208;9.182;2023-04-24T06:36:44;1.50;;;1.20;;
12593;SDS011;6362;50.208;9.182;2023-04-24T06:39:10;3.53;;;1.40;;
12593;SDS011;6362;50.208;9.182;2023-04-24T06:41:35;1.83;;;1.27;;
12593;SDS011;6362;50.208;9.182;2023-04-24T06:44:01;2.17;;;1.50;;
12593;SDS011;6362;50.208;9.182;2023-04-24T06:46:26;1.88;;;1.20;;
12593;SDS011;6362;50.208;9.182;2023-04-24T06:48:53;1.88;;;1.23;;
12593;SDS011;6362;50.208;9.182;2023-04-24T06:51:24;2.72;;;1.30;;
12593;SDS011;6362;50.208;9.182;2023-04-24T06:53:54;1.70;;;1.27;;
12593;SDS011;6362;50.208;9.182;2023-04-24T06:56:21;3.03;;;1.20;;
12593;SDS011;6362;50.208;9.182;2023-04-24T06:58:47;1.55;;;1.38;;
12593;SDS011;6362;50.208;9.182;2023-04-24T07:01:12;2.75;;;1.50;;
12593;SDS011;6362;50.208;9.182;2023-04-24T07:03:38;1.88;;;1.38;;
12593;SDS011;6362;50.208;9.182;2023-04-24T07:06:04;1.98;;;1.38;;
12593;SDS011;6362;50.208;9.182;2023-04-24T07:08:30;4.63;;;1.80;;
12593;SDS011;6362;50.208;9.182;2023-04-24T07:10:56;2.42;;;1.80;;
12593;SDS011;6362;50.208;9.182;2023-04-24T07:13:22;2.10;;;1.80;;
12593;SDS011;6362;50.208;9.182;2023-04-24T07:15:48;2.95;;;2.20;;
12593;SDS011;6362;50.208;9.182;2023-04-24T07:18:18;2.67;;;1.88;;
12593;SDS011;6362;50.208;9.182;2023-04-24T07:20:46;6.85;;;2.72;;
12593;SDS011;6362;50.208;9.182;2023-04-24T07:23:12;2.42;;;1.70;;
12593;SDS011;6362;50.208;9.182;2023-04-24T07:25:37;2.17;;;1.70;;
12593;SDS011;6362;50.208;9.182;2023-04-24T07:28:04;2.53;;;1.80;;
12593;SDS011;6362;50.208;9.182;2023-04-24T07:30:30;3.08;;;1.85;;
12593;SDS011;6362;50.208;9.182;2023-04-24T07:32:57;2.38;;;1.85;;
12593;SDS011;6362;50.208;9.182;2023-04-24T07:35:23;2.80;;;1.88;;
12593;SDS011;6362;50.208;9.182;2023-04-24T07:37:50;3.10;;;2.05;;
12593;SDS011;6362;50.208;9.182;2023-04-24T07:40:19;3.10;;;2.25;;
12593;SDS011;6362;50.208;9.182;2023-04-24T07:42:45;2.13;;;1.77;;
12593;SDS011;6362;50.208;9.182;2023-04-24T07:45:13;3.42;;;1.77;;
12593;SDS011;6362;50.208;9.182;2023-04-24T07:47:39;2.85;;;1.65;;
12593;SDS011;6362;50.208;9.182;2023-04-24T07:50:08;1.70;;;1.50;;
12593;SDS011;6362;50.208;9.182;2023-04-24T07:52:34;1.55;;;1.40;;
12593;SDS011;6362;50.208;9.182;2023-04-24T07:55:00;2.83;;;1.40;;
12593;SDS011;6362;50.208;9.182;2023-04-24T07:57:26;2.55;;;1.42;;
12593;SDS011;6362;50.208;9.182;2023-04-24T07:59:52;1.73;;;1.38;;
12593;SDS011;6362;50.208;9.182;2023-04-24T08:02:17;2.25;;;1.50;;
12593;SDS011;6362;50.208;9.182;2023-04-24T08:04:43;1.63;;;1.17;;
12593;SDS011;6362;50.208;9.182;2023-04-24T08:07:08;2.05;;;1.80;;
12593;SDS011;6362;50.208;9.182;2023-04-24T08:09:34;2.85;;;1.52;;
12593;SDS011;6362;50.208;9.182;2023-04-24T08:11:59;3.03;;;1.50;;
12593;SDS011;6362;50.208;9.182;2023-04-24T08:14:24;5.70;;;2.55;;
12593;SDS011;6362;50.208;9.182;2023-04-24T08:16:50;1.48;;;1.27;;
12593;SDS011;6362;50.208;9.182;2023-04-24T08:19:17;4.07;;;1.40;;
12593;SDS011;6362;50.208;9.182;2023-04-24T08:21:42;1.40;;;1.10;;
12593;SDS011;6362;50.208;9.182;2023-04-24T08:24:08;4.60;;;1.02;;
12593;SDS011;6362;50.208;9.182;2023-04-24T08:26:33;2.25;;;1.13;;
12593;SDS011;6362;50.208;9.182;2023-04-24T08:28:59;2.75;;;1.30;;
12593;SDS011;6362;50.208;9.182;2023-04-24T08:31:24;2.50;;;1.25;;
12593;SDS011;6362;50.208;9.182;2023-04-24T08:33:51;5.93;;;1.55;;
12593;SDS011;6362;50.208;9.182;2023-04-24T08:36:16;1.40;;;1.20;;
12593;SDS011;6362;50.208;9.182;2023-04-24T08:38:42;2.88;;;1.50;;
12593;SDS011;6362;50.208;9.182;2023-04-24T08:41:07;3.65;;;1.50;;
12593;SDS011;6362;50.208;9.182;2023-04-24T08:43:34;1.67;;;1.25;;
12593;SDS011;6362;50.208;9.182;2023-04-24T08:46:01;2.35;;;1.65;;
12593;SDS011;6362;50.208;9.182;2023-04-24T08:48:29;2.95;;;1.50;;
12593;SDS011;6362;50.208;9.182;2023-04-24T08:50:55;1.77;;;1.52;;
12593;SDS011;6362;50.208;9.182;2023-04-24T08:53:21;4.18;;;1.70;;
12593;SDS011;6362;50.208;9.182;2023-04-24T08:55:49;2.15;;;1.55;;
12593;SDS011;6362;50.208;9.182;2023-04-24T08:58:16;4.20;;;1.42;;
12593;SDS011;6362;50.208;9.182;2023-04-24T09:00:43;3.33;;;1.90;;
12593;SDS011;6362;50.208;9.182;2023-04-24T09:03:12;2.05;;;1.27;;
12593;SDS011;6362;50.208;9.182;2023-04-24T09:05:39;2.45;;;1.67;;
12593;SDS011;6362;50.208;9.182;2023-04-24T09:08:05;2.15;;;1.88;;
12593;SDS011;6362;50.208;9.182;2023-04-24T09:10:33;2.72;;;1.70;;
12593;SDS011;6362;50.208;9.182;2023-04-24T09:12:59;2.65;;;1.42;;
12593;SDS011;6362;50.208;9.182;2023-04-24T09:15:27;2.42;;;1.52;;
12593;SDS011;6362;50.208;9.182;2023-04-24T09:17:53;3.30;;;1.63;;
12593;SDS011;6362;50.208;9.182;2023-04-24T09:20:18;2.85;;;1.40;;
12593;SDS011;6362;50.208;9.182;2023-04-24T09:22:43;4.00;;;1.58;;
12593;SDS011;6362;50.208;9.182;2023-04-24T09:25:10;1.67;;;1.25;;
12593;SDS011;6362;50.208;9.182;2023-04-24T09:27:41;2.33;;;1.40;;
12593;SDS011;6362;50.208;9.182;2023-04-24T09:30:09;2.40;;;1.65;;
12593;SDS011;6362;50.208;9.182;2023-04-24T09:32:34;1.75;;;1.40;;
12593;SDS011;6362;50.208;9.182;2023-04-24T09:37:37;2.70;;;1.70;;
12593;SDS011;6362;50.208;9.182;2023-04-24T09:40:37;2.80;;;1.60;;
12593;SDS011;6362;50.208;9.182;2023-04-24T09:42:59;2.08;;;1.73;;
12593;SDS011;6362;50.208;9.182;2023-04-24T09:45:37;2.83;;;1.50;;
12593;SDS011;6362;50.208;9.182;2023-04-24T09:48:08;3.28;;;1.45;;
12593;SDS011;6362;50.208;9.182;2023-04-24T09:50:35;1.90;;;1.23;;
12593;SDS011;6362;50.208;9.182;2023-04-24T09:53:04;3.35;;;1.48;;
12593;SDS011;6362;50.208;9.182;2023-04-24T09:58:07;1.98;;;1.30;;
12593;SDS011;6362;50.208;9.182;2023-04-24T10:00:33;3.10;;;1.50;;
12593;SDS011;6362;50.208;9.182;2023-04-24T10:03:03;1.75;;;1.65;;
12593;SDS011;6362;50.208;9.182;2023-04-24T10:07:57;4.05;;;1.13;;
12593;SDS011;6362;50.208;9.182;2023-04-24T10:10:25;2.45;;;1.58;;
12593;SDS011;6362;50.208;9.182;2023-04-24T10:12:51;1.55;;;1.30;;
12593;SDS011;6362;50.208;9.182;2023-04-24T10:15:17;2.55;;;1.65;;
12593;SDS011;6362;50.208;9.182;2023-04-24T10:17:46;2.95;;;1.27;;
12593;SDS011;6362;50.208;9.182;2023-04-24T10:20:23;2.42;;;1.40;;
12593;SDS011;6362;50.208;9.182;2023-04-24T10:22:50;1.63;;;1.20;;
12593;SDS011;6362;50.208;9.182;2023-04-24T10:25:22;1.42;;;1.15;;
12593;SDS011;6362;50.208;9.182;2023-04-24T10:27:50;1.90;;;1.30;;
12593;SDS011;6362;50.208;9.182;2023-04-24T10:30:16;1.67;;;1.45;;
12593;SDS011;6362;50.208;9.182;2023-04-24T10:32:43;2.60;;;1.30;;
12593;SDS011;6362;50.208;9.182;2023-04-24T10:35:09;1.58;;;1.20;;
12593;SDS011;6362;50.208;9.182;2023-04-24T10:37:38;1.33;;;1.02;;
12593;SDS011;6362;50.208;9.182;2023-04-24T10:40:07;1.80;;;1.17;;
12593;SDS011;6362;50.208;9.182;2023-04-24T10:42:35;1.48;;;1.15;;
12593;SDS011;6362;50.208;9.182;2023-04-24T10:45:04;1.67;;;0.85;;
12593;SDS011;6362;50.208;9.182;2023-04-24T10:47:39;2.42;;;1.90;;
12593;SDS011;6362;50.208;9.182;2023-04-24T10:50:08;1.85;;;1.27;;
12593;SDS011;6362;50.208;9.182;2023-04-24T10:52:45;2.00;;;1.38;;
12593;SDS011;6362;50.208;9.182;2023-04-24T10:55:12;1.23;;;1.10;;
12593;SDS011;6362;50.208;9.182;2023-04-24T10:57:39;1.85;;;1.15;;
12593;SDS011;6362;50.208;9.182;2023-04-24T11:00:20;2.45;;;1.35;;
12593;SDS011;6362;50.208;9.182;2023-04-24T11:02:47;2.25;;;1.40;;
12593;SDS011;6362;50.208;9.182;2023-04-24T11:05:16;2.33;;;1.10;;
12593;SDS011;6362;50.208;9.182;2023-04-24T11:10:47;2.03;;;1.10;;
12593;SDS011;6362;50.208;9.182;2023-04-24T11:13:21;3.22;;;1.45;;
12593;SDS011;6362;50.208;9.182;2023-04-24T11:16:11;1.30;;;1.17;;
12593;SDS011;6362;50.208;9.182;2023-04-24T11:18:40;1.70;;;1.40;;
12593;SDS011;6362;50.208;9.182;2023-04-24T11:21:16;3.35;;;1.35;;
12593;SDS011;6362;50.208;9.182;2023-04-24T11:23:46;2.85;;;1.15;;
12593;SDS011;6362;50.208;9.182;2023-04-24T11:26:12;3.00;;;1.58;;
12593;SDS011;6362;50.208;9.182;2023-04-24T11:29:05;2.05;;;1.60;;
12593;SDS011;6362;50.208;9.182;2023-04-24T11:31:35;2.42;;;1.55;;
12593;SDS011;6362;50.208;9.182;2023-04-24T11:34:06;1.77;;;1.30;;
12593;SDS011;6362;50.208;9.182;2023-04-24T11:36:36;2.38;;;1.60;;
12593;SDS011;6362;50.208;9.182;2023-04-24T11:39:02;3.17;;;2.20;;
12593;SDS011;6362;50.208;9.182;2023-04-24T11:41:28;2.78;;;1.70;;
12593;SDS011;6362;50.208;9.182;2023-04-24T11:43:53;1.50;;;1.40;;
12593;SDS011;6362;50.208;9.182;2023-04-24T11:46:20;2.40;;;1.67;;
12593;SDS011;6362;50.208;9.182;2023-04-24T11:48:46;3.47;;;1.60;;
12593;SDS011;6362;50.208;9.182;2023-04-24T11:51:15;2.28;;;1.50;;
12593;SDS011;6362;50.208;9.182;2023-04-24T11:53:41;3.30;;;1.90;;
12593;SDS011;6362;50.208;9.182;2023-04-24T11:56:08;3.28;;;1.42;;
12593;SDS011;6362;50.208;9.182;2023-04-24T11:58:38;3.97;;;2.10;;
12593;SDS011;6362;50.208;9.182;2023-04-24T12:01:04;2.03;;;1.15;;
12593;SDS011;6362;50.208;9.182;2023-04-24T12:03:30;1.83;;;1.15;;
12593;SDS011;6362;50.208;9.182;2023-04-24T12:06:05;1.20;;;1.10;;
12593;SDS011;6362;50.208;9.182;2023-04-24T12:08:34;1.35;;;1.00;;
12593;SDS011;6362;50.208;9.182;2023-04-24T12:11:00;2.15;;;1.17;;
12593;SDS011;6362;50.208;9.182;2023-04-24T12:13:29;1.30;;;1.00;;
12593;SDS011;6362;50.208;9.182;2023-04-24T12:15:59;1.27;;;0.90;;
12593;SDS011;6362;50.208;9.182;2023-04-24T12:18:26;2.85;;;1.10;;
12593;SDS011;6362;50.208;9.182;2023-04-24T12:20:52;2.80;;;1.33;;
12593;SDS011;6362;50.208;9.182;2023-04-24T12:23:32;2.72;;;1.10;;
12593;SDS011;6362;50.208;9.182;2023-04-24T12:26:00;1.98;;;1.30;;
12593;SDS011;6362;50.208;9.182;2023-04-24T12:28:34;2.25;;;1.10;;
12593;SDS011;6362;50.208;9.182;2023-04-24T12:31:00;3.55;;;1.40;;
12593;SDS011;6362;50.208;9.182;2023-04-24T12:33:26;1.50;;;1.00;;
12593;SDS011;6362;50.208;9.182;2023-04-24T12:35:52;1.73;;;1.00;;
12593;SDS011;6362;50.208;9.182;2023-04-24T12:38:25;1.88;;;1.10;;
12593;SDS011;6362;50.208;9.182;2023-04-24T12:41:01;2.30;;;1.67;;
12593;SDS011;6362;50.208;9.182;2023-04-24T12:43:29;2.30;;;0.98;;
12593;SDS011;6362;50.208;9.182;2023-04-24T12:45:55;0.80;;;0.80;;
12593;SDS011;6362;50.208;9.182;2023-04-24T12:48:20;1.27;;;1.00;;
12593;SDS011;6362;50.208;9.182;2023-04-24T12:50:47;2.05;;;1.05;;
12593;SDS011;6362;50.208;9.182;2023-04-24T12:53:12;1.13;;;0.85;;
12593;SDS011;6362;50.208;9.182;2023-04-24T12:55:38;1.50;;;0.90;;
12593;SDS011;6362;50.208;9.182;2023-04-24T12:58:05;3.65;;;0.93;;
12593;SDS011;6362;50.208;9.182;2023-04-24T13:00:30;1.52;;;1.13;;
12593;SDS011;6362;50.208;9.182;2023-04-24T13:02:56;1.80;;;0.98;;
12593;SDS011;6362;50.208;9.182;2023-04-24T13:05:21;2.90;;;0.75;;
12593;SDS011;6362;50.208;9.182;2023-04-24T13:07:46;2.05;;;1.02;;
12593;SDS011;6362;50.208;9.182;2023-04-24T13:10:12;1.55;;;1.10;;
12593;SDS011;6362;50.208;9.182;2023-04-24T13:12:38;1.10;;;0.95;;
12593;SDS011;6362;50.208;9.182;2023-04-24T13:15:04;1.85;;;1.23;;
12593;SDS011;6362;50.208;9.182;2023-04-24T13:17:30;1.65;;;1.10;;
12593;SDS011;6362;50.208;9.182;2023-04-24T13:19:55;2.47;;;0.90;;
12593;SDS011;6362;50.208;9.182;2023-04-24T13:22:21;1.48;;;0.80;;
12593;SDS011;6362;50.208;9.182;2023-04-24T13:24:46;1.50;;;1.10;;
12593;SDS011;6362;50.208;9.182;2023-04-24T13:27:14;1.60;;;1.05;;
12593;SDS011;6362;50.208;9.182;2023-04-24T13:29:40;1.02;;;0.95;;
12593;SDS011;6362;50.208;9.182;2023-04-24T13:32:06;2.22;;;1.20;;
12593;SDS011;6362;50.208;9.182;2023-04-24T13:34:31;1.88;;;1.00;;
12593;SDS011;6362;50.208;9.182;2023-04-24T13:36:57;1.20;;;0.90;;
12593;SDS011;6362;50.208;9.182;2023-04-24T13:39:24;2.72;;;0.75;;
12593;SDS011;6362;50.208;9.182;2023-04-24T13:41:50;2.88;;;0.98;;
12593;SDS011;6362;50.208;9.182;2023-04-24T13:44:16;2.05;;;0.90;;
12593;SDS011;6362;50.208;9.182;2023-04-24T13:46:44;1.38;;;1.17;;
12593;SDS011;6362;50.208;9.182;2023-04-24T13:49:11;1.95;;;0.98;;
12593;SDS011;6362;50.208;9.182;2023-04-24T13:51:38;1.85;;;0.77;;
12593;SDS011;6362;50.208;9.182;2023-04-24T13:54:03;1.02;;;0.70;;
12593;SDS011;6362;50.208;9.182;2023-04-24T13:56:29;1.30;;;1.00;;
12593;SDS011;6362;50.208;9.182;2023-04-24T13:58:55;1.50;;;0.80;;
12593;SDS011;6362;50.208;9.182;2023-04-24T14:01:21;1.38;;;1.00;;
12593;SDS011;6362;50.208;9.182;2023-04-24T14:03:53;1.73;;;1.15;;
12593;SDS011;6362;50.208;9.182;2023-04-24T14:06:19;2.58;;;1.00;;
12593;SDS011;6362;50.208;9.182;2023-04-24T14:08:45;2.70;;;1.00;;
12593;SDS011;6362;50.208;9.182;2023-04-24T14:11:11;1.83;;;1.17;;
12593;SDS011;6362;50.208;9.182;2023-04-24T14:13:37;1.15;;;1.05;;
12593;SDS011;6362;50.208;9.182;2023-04-24T14:16:03;2.72;;;1.30;;
12593;SDS011;6362;50.208;9.182;2023-04-24T14:18:29;1.10;;;1.00;;
12593;SDS011;6362;50.208;9.182;2023-04-24T14:20:55;1.20;;;1.02;;
12593;SDS011;6362;50.208;9.182;2023-04-24T14:23:20;1.83;;;1.25;;
12593;SDS011;6362;50.208;9.182;2023-04-24T14:25:46;1.20;;;1.10;;
12593;SDS011;6362;50.208;9.182;2023-04-24T14:28:15;2.00;;;1.80;;
12593;SDS011;6362;50.208;9.182;2023-04-24T14:30:41;2.65;;;1.90;;
12593;SDS011;6362;50.208;9.182;2023-04-24T14:33:07;3.75;;;1.90;;
12593;SDS011;6362;50.208;9.182;2023-04-24T14:35:32;5.13;;;1.80;;
12593;SDS011;6362;50.208;9.182;2023-04-24T14:37:59;2.65;;;1.67;;
12593;SDS011;6362;50.208;9.182;2023-04-24T14:40:24;4.28;;;2.20;;
12593;SDS011;6362;50.208;9.182;2023-04-24T14:42:50;4.88;;;2.67;;
12593;SDS011;6362;50.208;9.182;2023-04-24T14:45:15;3.53;;;2.13;;
12593;SDS011;6362;50.208;9.182;2023-04-24T14:47:41;3.30;;;2.83;;
12593;SDS011;6362;50.208;9.182;2023-04-24T14:50:06;7.68;;;2.58;;
12593;SDS011;6362;50.208;9.182;2023-04-24T14:52:33;3.22;;;2.47;;
12593;SDS011;6362;50.208;9.182;2023-04-24T14:54:58;5.20;;;2.58;;
12593;SDS011;6362;50.208;9.182;2023-04-24T14:57:24;3.90;;;2.80;;
12593;SDS011;6362;50.208;9.182;2023-04-24T14:59:49;4.28;;;3.55;;
12593;SDS011;6362;50.208;9.182;2023-04-24T15:02:15;5.78;;;3.83;;
12593;SDS011;6362;50.208;9.182;2023-04-24T15:04:40;3.67;;;2.80;;
12593;SDS011;6362;50.208;9.182;2023-04-24T15:07:06;5.63;;;3.08;;